Coeur d'Alene, ID (83814)

6:34 AM PDT on September 01, 2014 (GMT -0700)
Downtown Coeur d'Alene | Change Station
CLOSE
Current Station
Personal Weather Station
Location: Coeur d'Alene, ID
Elevation: 2175 ft
Nearby Weather Stations

Elev 2175 ft 47.67 °N, 116.79 °W | Updated 4 minutes ago

Clear
Clear
54.7 °F
Feels Like 54.7 °F
N
3.1
Wind Variable Wind from North
Gusts 6.0 mph

Today
High -- | Low -- °F
--% Chance of Precip.
Yesterday
High -- | Low -- °F
Precip. -- in
6:05 AM 7:27 PM
Waxing Crescent, 41% visible
Pressure 30.04 in
Visibility 10.0 miles
Clouds Clear
Dew Point 47 °F
Humidity 76%
Rainfall 0.00 in
Snow Depth Not available.
UV 0 out of 12
Pollen 6.50 out of 12
Air Quality Not available.
Flu Activity Not available.
METAR KCOE 011315Z AUTO 00000KT 10SM CLR 08/04 A3004 RMK AO1

More Conditions Fewer Conditions

Pressure 30.04 in
Visibility 10.0 miles
Clouds Clear
Dew Point 47 °F
Humidity 76%
Rainfall 0.00 in
Snow Depth Not available.
UV 0 out of 12
Pollen 6.50 out of 12
Air Quality Not available.
Flu Activity Not available.
METAR KCOE 011315Z AUTO 00000KT 10SM CLR 08/04 A3004 RMK AO1

More Conditions Fewer Conditions

10-Day Weather Forecast

Almanac

Astronomy

Sep. 01, 2014 Rise Set
Actual Time 6:05 AM PDT 7:27 PM PDT
Civil Twilight 5:33 AM PDT 7:59 PM PDT
Nautical Twilight 4:54 AM PDT 8:37 PM PDT
Astronomical Twilight 4:13 AM PDT 9:19 PM PDT
Moon 1:25 PM PDT 11:02 PM PDT
Length of Visible Light 14h 25m
Length of Day
13h 21m
Tomorrow will be 3m 19s shorter.
Waxing Crescent, 41% of the Moon is Illuminated
Today
Waxing Crescent
Sep 2
First Quarter
Sep 8
Full
Sep 15
Last Quarter
Sep 24
New

Today's Extremes

State Highs State Lows

Community

WunderPhotos

Upload Photos

1,749,217 photos uploaded!

Nearby

Snow Depth

Station Depth Elevation
Mosquito Ridge 0 in 5200 ft
Mica Creek 1 in 4750 ft
Sunset 0 in 5540 ft
Humboldt Gulch 2 in 4250 ft
Schweitzer Basin 0 in 6090 ft

Earthquake Activity

City Distance Mag. Time & Date
No recent earthquake activity has been reported nearby.
Minimum magnitude displayed is 2.5.

Coastal Water Temperatures

Place Temperature
No Stations Reporting

Nearby Weather Stations